createdAt,value
2023-02-04T00:00:38.926Z,5.87
2023-02-04T00:03:07.260Z,5.85
2023-02-04T00:05:36.790Z,5.88
2023-02-04T00:08:04.997Z,5.86
2023-02-04T00:10:33.468Z,5.83
2023-02-04T00:13:01.718Z,5.86
2023-02-04T00:15:29.632Z,5.88
2023-02-04T00:17:57.637Z,5.85
2023-02-04T00:20:25.637Z,5.86
2023-02-04T00:22:55.094Z,5.83
2023-02-04T00:25:23.042Z,5.87
2023-02-04T00:27:50.925Z,5.85
2023-02-04T00:30:19.093Z,5.83
2023-02-04T00:32:47.055Z,5.83
2023-02-04T00:35:15.439Z,5.85
2023-02-04T00:37:43.322Z,5.85
2023-02-04T00:40:14.050Z,5.88
2023-02-04T00:42:42.060Z,5.89
2023-02-04T00:45:11.600Z,5.89
2023-02-04T00:47:40.247Z,5.88
2023-02-04T00:50:08.871Z,5.88
2023-02-04T00:52:36.768Z,5.88
2023-02-04T00:55:04.905Z,5.87
2023-02-04T00:57:34.321Z,5.89
2023-02-04T01:00:02.273Z,5.91
2023-02-04T01:02:30.105Z,5.93
2023-02-04T01:04:58.562Z,5.95
2023-02-04T01:07:26.686Z,5.96
2023-02-04T01:09:54.737Z,5.97
2023-02-04T01:12:22.992Z,5.95
2023-02-04T01:14:52.431Z,5.95
2023-02-04T01:17:21.240Z,5.96
2023-02-04T01:19:49.629Z,5.97
2023-02-04T01:22:17.614Z,5.96
2023-02-04T01:24:45.569Z,5.93
2023-02-04T01:27:31.915Z,5.95
2023-02-04T01:30:01.207Z,5.93
2023-02-04T01:32:29.163Z,5.95
2023-02-04T01:34:57.331Z,5.92
2023-02-04T01:37:25.338Z,5.90
2023-02-04T01:39:53.333Z,5.92
2023-02-04T01:42:21.609Z,5.93
2023-02-04T01:44:49.858Z,5.93
2023-02-04T01:47:19.426Z,5.95
2023-02-04T01:49:52.386Z,5.93
2023-02-04T01:52:20.729Z,5.96
2023-02-04T01:54:48.801Z,5.92
2023-02-04T01:57:18.556Z,5.90
2023-02-04T01:59:48.330Z,5.87
2023-02-04T02:02:43.046Z,5.79
2023-02-04T02:05:12.522Z,5.79
2023-02-04T02:07:40.582Z,5.73
2023-02-04T02:10:11.465Z,5.58
2023-02-04T02:12:39.917Z,5.57
2023-02-04T02:15:11.157Z,5.45
2023-02-04T02:17:39.305Z,5.43
2023-02-04T02:20:10.759Z,5.41
2023-02-04T02:22:46.611Z,5.39
2023-02-04T02:25:16.779Z,5.31
2023-02-04T02:27:44.918Z,5.35
2023-02-04T02:30:17.615Z,5.32
2023-02-04T02:32:47.211Z,5.30
2023-02-04T02:35:16.569Z,5.29
2023-02-04T02:37:44.641Z,5.23
2023-02-04T02:40:16.140Z,5.19
2023-02-04T02:42:45.001Z,5.29
2023-02-04T02:45:19.446Z,5.33
2023-02-04T02:47:47.365Z,5.26
2023-02-04T02:50:20.782Z,5.26
2023-02-04T02:52:48.798Z,5.27
2023-02-04T02:55:21.508Z,5.28
2023-02-04T02:57:50.591Z,5.30
2023-02-04T03:00:22.005Z,5.28
2023-02-04T03:02:56.541Z,5.29
2023-02-04T03:05:25.943Z,5.29
2023-02-04T03:07:54.048Z,5.26
2023-02-04T03:10:23.445Z,5.28
2023-02-04T03:12:52.147Z,5.28
2023-02-04T03:15:21.300Z,5.28
2023-02-04T03:17:51.445Z,5.26
2023-02-04T03:20:19.973Z,5.26
2023-02-04T03:22:47.879Z,5.28
2023-02-04T03:25:16.257Z,5.25
2023-02-04T03:27:45.661Z,5.25
2023-02-04T03:30:13.678Z,5.22
2023-02-04T03:32:41.892Z,5.24
2023-02-04T03:35:10.183Z,5.24
2023-02-04T03:37:38.169Z,5.25
2023-02-04T03:40:06.944Z,5.20
2023-02-04T03:42:34.898Z,5.17
2023-02-04T03:45:04.304Z,5.20
2023-02-04T03:47:32.163Z,5.15
2023-02-04T03:50:00.170Z,5.08
2023-02-04T03:52:28.020Z,5.09
2023-02-04T03:54:55.981Z,5.08
2023-02-04T03:57:23.935Z,5.09
2023-02-04T03:59:51.816Z,5.06
2023-02-04T04:02:21.132Z,5.06
2023-02-04T04:04:49.035Z,5.04
2023-02-04T04:07:17.018Z,4.95
2023-02-04T04:09:45.017Z,4.97
2023-02-04T04:12:12.903Z,4.94
2023-02-04T04:14:40.821Z,4.95
2023-02-04T04:17:08.700Z,4.93
2023-02-04T04:19:37.934Z,4.94
2023-02-04T04:22:06.225Z,4.88
2023-02-04T04:24:34.088Z,4.91
2023-02-04T04:27:01.929Z,4.90
2023-02-04T04:29:29.852Z,4.90
2023-02-04T04:31:57.749Z,4.93
2023-02-04T04:34:25.735Z,4.94
2023-02-04T04:36:55.021Z,4.90
2023-02-04T04:39:23.087Z,4.95
2023-02-04T04:41:50.993Z,4.89
2023-02-04T04:44:18.908Z,4.92
2023-02-04T04:46:46.880Z,4.93
2023-02-04T04:49:14.780Z,4.91
2023-02-04T04:51:42.790Z,4.91
2023-02-04T04:54:12.047Z,4.87
2023-02-04T04:56:39.925Z,4.93
2023-02-04T04:59:07.789Z,4.92
2023-02-04T05:01:35.697Z,4.91
2023-02-04T05:04:04.212Z,4.92
2023-02-04T05:06:32.104Z,4.89
2023-02-04T05:09:00.025Z,4.92
2023-02-04T05:11:29.317Z,4.96
2023-02-04T05:13:57.254Z,4.93
2023-02-04T05:16:25.127Z,4.96
2023-02-04T05:18:53.036Z,4.95
2023-02-04T05:21:20.944Z,4.96
2023-02-04T05:23:48.863Z,4.96
2023-02-04T05:26:29.121Z,4.95
2023-02-04T05:29:00.400Z,4.90
2023-02-04T05:31:28.591Z,4.93
2023-02-04T05:33:56.605Z,4.94
2023-02-04T05:36:24.562Z,4.94
2023-02-04T05:38:52.455Z,4.92
2023-02-04T05:41:20.307Z,4.92
2023-02-04T05:43:48.173Z,4.85
2023-02-04T05:46:17.382Z,4.89
2023-02-04T05:48:45.276Z,4.93
2023-02-04T05:51:13.176Z,4.91
2023-02-04T05:53:41.032Z,4.89
2023-02-04T05:56:09.068Z,4.89
2023-02-04T05:58:38.258Z,4.88
2023-02-04T06:01:07.656Z,4.89
2023-02-04T06:03:37.060Z,4.87
2023-02-04T06:06:05.184Z,4.90
2023-02-04T06:08:33.039Z,4.87
2023-02-04T06:11:00.934Z,4.85
2023-02-04T06:13:28.814Z,4.86
2023-02-04T06:15:56.821Z,4.87
2023-02-04T06:18:24.675Z,4.91
2023-02-04T06:20:53.943Z,4.87
2023-02-04T06:23:21.806Z,4.86
2023-02-04T06:25:50.438Z,4.87
2023-02-04T06:28:18.392Z,4.87
2023-02-04T06:30:46.415Z,4.85
2023-02-04T06:33:14.427Z,4.85
2023-02-04T06:35:42.586Z,4.84
2023-02-04T06:38:11.863Z,4.83
2023-02-04T06:40:39.801Z,4.85
2023-02-04T06:43:07.778Z,4.84
2023-02-04T06:45:35.888Z,4.84
2023-02-04T06:48:03.767Z,4.82
2023-02-04T06:50:31.900Z,4.82
2023-02-04T06:53:00.014Z,4.79
2023-02-04T06:55:29.270Z,4.80
2023-02-04T06:57:57.110Z,4.82
2023-02-04T07:00:25.132Z,4.78
2023-02-04T07:02:53.144Z,4.78
2023-02-04T07:05:21.501Z,4.79
2023-02-04T07:07:49.408Z,4.76
2023-02-04T07:10:17.843Z,4.77
2023-02-04T07:12:47.215Z,4.73
2023-02-04T07:15:15.326Z,4.74
2023-02-04T07:17:43.253Z,4.71
2023-02-04T07:20:12.505Z,4.74
2023-02-04T07:22:41.178Z,4.72
2023-02-04T07:25:10.156Z,4.71
2023-02-04T07:27:38.225Z,4.69
2023-02-04T07:30:08.533Z,4.72
2023-02-04T07:32:36.380Z,4.74
2023-02-04T07:35:04.381Z,4.69
2023-02-04T07:37:32.276Z,4.64
2023-02-04T07:40:00.185Z,4.64
2023-02-04T07:42:28.105Z,4.69
2023-02-04T07:45:05.504Z,4.63
2023-02-04T07:47:34.765Z,4.62
2023-02-04T07:50:02.660Z,4.62
2023-02-04T07:52:30.572Z,4.63
2023-02-04T07:54:58.406Z,4.62
2023-02-04T07:57:26.283Z,4.61
2023-02-04T07:59:54.196Z,4.66
2023-02-04T08:02:22.593Z,4.68
2023-02-04T08:04:52.076Z,4.65
2023-02-04T08:07:20.074Z,4.68
2023-02-04T08:09:48.016Z,4.71
2023-02-04T08:12:16.351Z,4.73
2023-02-04T08:14:44.240Z,4.73
2023-02-04T08:17:12.064Z,4.73
2023-02-04T08:19:39.977Z,4.74
2023-02-04T08:22:09.161Z,4.75
2023-02-04T08:24:36.983Z,4.76
2023-02-04T08:27:05.050Z,4.70
2023-02-04T08:29:32.925Z,4.74
2023-02-04T08:32:00.866Z,4.74
2023-02-04T08:34:29.063Z,4.80
2023-02-04T08:36:56.941Z,4.78
2023-02-04T08:39:26.182Z,4.77
2023-02-04T08:41:54.121Z,4.80
2023-02-04T08:44:22.067Z,4.84
2023-02-04T08:46:50.177Z,4.85
2023-02-04T08:49:18.204Z,4.88
2023-02-04T08:51:46.109Z,4.93
2023-02-04T08:54:14.012Z,4.91
2023-02-04T08:56:43.224Z,4.99
2023-02-04T08:59:11.117Z,5.00
2023-02-04T09:01:39.057Z,5.04
2023-02-04T09:04:07.607Z,5.06
2023-02-04T09:06:35.568Z,5.04
2023-02-04T09:09:03.448Z,5.16
2023-02-04T09:11:31.371Z,5.16
2023-02-04T09:14:00.612Z,5.17
2023-02-04T09:16:28.464Z,5.17
2023-02-04T09:18:56.375Z,5.22
2023-02-04T09:21:24.286Z,5.18
2023-02-04T09:23:52.686Z,5.26
2023-02-04T09:26:20.665Z,5.26
2023-02-04T09:28:48.687Z,5.24
2023-02-04T09:31:18.874Z,5.19
2023-02-04T09:33:46.842Z,5.29
2023-02-04T09:36:14.744Z,5.29
2023-02-04T09:38:42.645Z,5.28
2023-02-04T09:41:13.757Z,5.30
2023-02-04T09:43:44.335Z,5.32
2023-02-04T09:46:21.962Z,5.32
2023-02-04T09:48:50.499Z,5.35
2023-02-04T09:51:20.654Z,5.33
2023-02-04T09:53:49.967Z,5.38
2023-02-04T09:56:19.302Z,5.45
2023-02-04T09:58:47.336Z,5.45
2023-02-04T10:01:17.265Z,5.51
2023-02-04T10:03:48.373Z,5.55
2023-02-04T10:06:18.280Z,5.50
2023-02-04T10:08:47.743Z,5.50
2023-02-04T10:11:17.424Z,5.54
2023-02-04T10:13:50.178Z,5.59
2023-02-04T10:16:21.466Z,5.65
2023-02-04T10:18:51.297Z,5.68
2023-02-04T10:21:22.172Z,5.69
2023-02-04T10:23:52.642Z,5.73
2023-02-04T10:26:22.457Z,5.76
2023-02-04T10:28:50.556Z,5.62
2023-02-04T10:31:34.290Z,5.63
2023-02-04T10:34:13.367Z,5.65
2023-02-04T10:36:42.845Z,5.61
2023-02-04T10:39:14.544Z,5.61
2023-02-04T10:41:49.608Z,5.60
2023-02-04T10:44:19.882Z,5.65
2023-02-04T10:46:48.316Z,5.68
2023-02-04T10:49:23.437Z,5.70
2023-02-04T10:51:53.474Z,5.70
2023-02-04T10:54:33.880Z,5.68
2023-02-04T10:57:10.326Z,5.72
2023-02-04T10:59:38.651Z,5.72
2023-02-04T11:02:30.672Z,5.75
2023-02-04T11:05:00.117Z,5.75
2023-02-04T11:07:29.102Z,5.76
2023-02-04T11:09:57.169Z,5.85
2023-02-04T11:12:39.137Z,5.87
2023-02-04T11:15:08.522Z,5.88
2023-02-04T11:17:36.638Z,5.97
2023-02-04T11:20:17.947Z,5.95
2023-02-04T11:22:49.404Z,5.98
2023-02-04T11:25:33.598Z,5.97
2023-02-04T11:28:02.033Z,5.84
2023-02-04T11:30:34.470Z,5.93
2023-02-04T11:33:05.257Z,5.95
2023-02-04T11:35:34.822Z,6.01
2023-02-04T11:38:02.852Z,5.97
2023-02-04T11:40:33.263Z,5.95
2023-02-04T11:43:03.887Z,5.97
2023-02-04T11:45:34.995Z,5.93
2023-02-04T11:48:05.413Z,5.88
2023-02-04T11:50:38.431Z,5.79
2023-02-04T11:53:06.811Z,5.68
2023-02-04T11:55:38.383Z,5.76
2023-02-04T11:58:08.689Z,5.73
2023-02-04T12:00:38.271Z,5.65
2023-02-04T12:03:20.945Z,5.61
2023-02-04T12:05:50.602Z,5.72
2023-02-04T12:08:30.940Z,5.66
2023-02-04T12:11:05.433Z,5.58
2023-02-04T12:13:33.661Z,5.64
2023-02-04T12:16:03.518Z,5.70
2023-02-04T12:18:33.126Z,5.72
2023-02-04T12:21:04.722Z,5.72
2023-02-04T12:23:33.119Z,5.77
2023-02-04T12:26:01.541Z,5.82
2023-02-04T12:28:30.625Z,5.79
2023-02-04T12:30:58.638Z,5.80
2023-02-04T12:33:26.616Z,5.81
2023-02-04T12:35:54.599Z,5.90
2023-02-04T12:38:23.929Z,5.91
2023-02-04T12:40:51.798Z,5.91
2023-02-04T12:43:19.698Z,5.93
2023-02-04T12:45:49.845Z,5.90
2023-02-04T12:48:19.136Z,5.96
2023-02-04T12:50:47.019Z,6.01
2023-02-04T12:53:14.930Z,6.03
2023-02-04T12:55:44.194Z,6.06
2023-02-04T12:58:12.005Z,6.05
2023-02-04T13:00:39.975Z,5.96
2023-02-04T13:03:07.817Z,5.99
2023-02-04T13:05:36.039Z,6.01
2023-02-04T13:08:03.949Z,6.06
2023-02-04T13:10:31.915Z,6.08
2023-02-04T13:13:04.020Z,6.07
2023-02-04T13:15:32.614Z,6.10
2023-02-04T13:18:00.655Z,6.11
2023-02-04T13:20:28.555Z,6.10
2023-02-04T13:22:56.460Z,6.11
2023-02-04T13:25:24.373Z,6.12
2023-02-04T13:27:52.313Z,6.14
2023-02-04T13:30:21.587Z,6.17
2023-02-04T13:32:49.569Z,6.18
2023-02-04T13:35:17.623Z,6.20
2023-02-04T13:37:45.496Z,6.20
2023-02-04T13:40:13.734Z,6.26
2023-02-04T13:42:41.660Z,6.29
2023-02-04T13:45:12.552Z,6.28
2023-02-04T13:47:41.786Z,6.18
2023-02-04T13:50:10.325Z,6.15
2023-02-04T13:52:38.231Z,6.11
2023-02-04T13:55:06.904Z,6.02
2023-02-04T13:57:35.161Z,5.97
2023-02-04T14:00:03.068Z,5.96
2023-02-04T14:02:42.800Z,6.02
2023-02-04T14:05:10.726Z,6.01
2023-02-04T14:07:38.572Z,6.00
2023-02-04T14:10:07.449Z,6.00
2023-02-04T14:12:35.309Z,6.02
2023-02-04T14:15:03.194Z,6.05
2023-02-04T14:17:31.104Z,6.04
2023-02-04T14:20:00.377Z,6.03
2023-02-04T14:22:28.489Z,6.02
2023-02-04T14:24:56.350Z,6.06
2023-02-04T14:27:24.367Z,6.08
2023-02-04T14:29:52.193Z,6.06
2023-02-04T14:32:20.964Z,6.11
2023-02-04T14:34:48.837Z,6.10
2023-02-04T14:37:18.159Z,6.10
2023-02-04T14:39:46.139Z,6.06
2023-02-04T14:42:13.987Z,6.08
2023-02-04T14:44:41.874Z,6.10
2023-02-04T14:47:09.691Z,6.07
2023-02-04T14:49:38.050Z,6.06
2023-02-04T14:52:06.419Z,6.05
2023-02-04T14:54:35.675Z,6.02
2023-02-04T14:57:04.696Z,6.08
2023-02-04T14:59:33.082Z,6.09
2023-02-04T15:02:00.945Z,6.06
2023-02-04T15:04:29.417Z,6.01
2023-02-04T15:06:57.963Z,5.95
2023-02-04T15:09:26.241Z,5.94
2023-02-04T15:11:55.678Z,5.92
2023-02-04T15:14:23.563Z,5.90
2023-02-04T15:16:51.526Z,5.92
2023-02-04T15:19:20.685Z,5.87
2023-02-04T15:21:48.599Z,5.89
2023-02-04T15:24:16.539Z,5.83
2023-02-04T15:26:44.512Z,5.79
2023-02-04T15:29:13.708Z,5.79
2023-02-04T15:31:41.755Z,5.72
2023-02-04T15:34:09.669Z,5.75
2023-02-04T15:36:37.540Z,5.74
2023-02-04T15:39:05.630Z,5.72
2023-02-04T15:41:33.521Z,5.72
2023-02-04T15:44:01.391Z,5.69
2023-02-04T15:46:32.082Z,5.64
2023-02-04T15:49:00.109Z,5.61
2023-02-04T15:51:27.993Z,5.49
2023-02-04T15:53:55.876Z,5.48
2023-02-04T15:56:23.916Z,5.43
2023-02-04T15:58:51.800Z,5.42
2023-02-04T16:01:20.023Z,5.40
2023-02-04T16:03:50.812Z,5.41
2023-02-04T16:06:18.697Z,5.39
2023-02-04T16:08:46.584Z,5.38
2023-02-04T16:11:14.439Z,5.36
2023-02-04T16:13:42.328Z,5.34
2023-02-04T16:16:10.336Z,5.32
2023-02-04T16:18:38.195Z,5.28
2023-02-04T16:21:07.593Z,5.27
2023-02-04T16:23:35.452Z,5.24
2023-02-04T16:26:03.363Z,5.20
2023-02-04T16:28:31.204Z,5.17
2023-02-04T16:30:59.117Z,5.15
2023-02-04T16:33:27.968Z,5.11
2023-02-04T16:36:01.868Z,5.08
2023-02-04T16:38:32.007Z,5.03
2023-02-04T16:41:00.176Z,5.03
2023-02-04T16:43:28.054Z,4.98
2023-02-04T16:45:56.097Z,4.93
2023-02-04T16:48:24.406Z,4.90
2023-02-04T16:50:52.324Z,4.93
2023-02-04T16:53:20.229Z,4.86
2023-02-04T16:55:49.847Z,4.80
2023-02-04T16:58:18.751Z,4.81
2023-02-04T17:00:46.861Z,4.81
2023-02-04T17:03:15.463Z,4.80
2023-02-04T17:05:43.843Z,4.77
2023-02-04T17:08:13.548Z,4.75
2023-02-04T17:10:59.355Z,4.72
2023-02-04T17:13:29.071Z,4.68
2023-02-04T17:16:00.870Z,4.63
2023-02-04T17:18:29.675Z,4.60
2023-02-04T17:20:58.199Z,4.57
2023-02-04T17:23:26.863Z,4.58
2023-02-04T17:25:54.798Z,4.55
2023-02-04T17:28:24.231Z,4.51
2023-02-04T17:30:53.883Z,4.42
2023-02-04T17:33:22.354Z,4.40
2023-02-04T17:35:50.424Z,4.37
2023-02-04T17:38:18.351Z,4.33
2023-02-04T17:40:46.619Z,4.28
2023-02-04T17:43:14.555Z,4.22
2023-02-04T17:45:42.529Z,4.19
2023-02-04T17:48:11.725Z,4.15
2023-02-04T17:50:40.455Z,4.12
2023-02-04T17:53:09.453Z,4.06
2023-02-04T17:55:39.377Z,3.98
2023-02-04T17:58:14.887Z,3.97
2023-02-04T18:00:44.471Z,3.91
2023-02-04T18:03:15.916Z,3.78
2023-02-04T18:05:46.563Z,3.79
2023-02-04T18:08:16.962Z,3.74
2023-02-04T18:10:46.533Z,3.72
2023-02-04T18:13:17.309Z,3.72
2023-02-04T18:15:47.977Z,3.64
2023-02-04T18:18:25.609Z,3.59
2023-02-04T18:20:59.881Z,3.55
2023-02-04T18:23:30.477Z,3.56
2023-02-04T18:26:05.995Z,3.48
2023-02-04T18:28:35.595Z,3.44
2023-02-04T18:31:04.689Z,3.39
2023-02-04T18:33:34.879Z,3.34
2023-02-04T18:36:03.406Z,3.35
2023-02-04T18:38:35.913Z,3.22
2023-02-04T18:41:22.900Z,3.13
2023-02-04T18:43:52.873Z,3.04
2023-02-04T18:46:25.289Z,3.07
2023-02-04T18:49:08.721Z,3.07
2023-02-04T18:51:40.287Z,3.03
2023-02-04T18:54:28.122Z,2.97
2023-02-04T18:57:03.314Z,2.93
2023-02-04T18:59:31.697Z,2.89
2023-02-04T19:01:59.897Z,2.82
2023-02-04T19:04:29.196Z,2.74
2023-02-04T19:06:57.430Z,2.64
2023-02-04T19:09:27.356Z,2.61
2023-02-04T19:11:56.535Z,2.56
2023-02-04T19:14:28.902Z,2.52
2023-02-04T19:17:08.999Z,2.51
2023-02-04T19:19:40.061Z,2.43
2023-02-04T19:22:31.934Z,2.38
2023-02-04T19:25:21.128Z,2.36
2023-02-04T19:27:53.083Z,2.39
2023-02-04T19:30:44.577Z,2.30
2023-02-04T19:33:17.794Z,2.31
2023-02-04T19:35:48.963Z,2.36
2023-02-04T19:38:38.228Z,2.22
2023-02-04T19:41:25.519Z,2.25
2023-02-04T19:43:58.031Z,2.18
2023-02-04T19:46:27.737Z,2.11
2023-02-04T19:48:57.732Z,2.17
2023-02-04T19:51:29.723Z,2.10
2023-02-04T19:54:03.642Z,1.99
2023-02-04T19:56:35.917Z,1.87
2023-02-04T19:59:24.334Z,1.84
2023-02-04T20:01:59.600Z,1.79
2023-02-04T20:04:36.281Z,1.74
2023-02-04T20:07:15.696Z,1.78
2023-02-04T20:09:43.524Z,1.75
2023-02-04T20:12:14.892Z,1.74
2023-02-04T20:14:49.260Z,1.70
2023-02-04T20:17:38.708Z,1.70
2023-02-04T20:20:26.080Z,1.71
2023-02-04T20:22:57.048Z,1.71
2023-02-04T20:25:46.963Z,1.71
2023-02-04T20:28:38.371Z,1.71
2023-02-04T20:31:23.900Z,1.76
2023-02-04T20:33:53.283Z,1.69
2023-02-04T20:36:43.186Z,1.77
2023-02-04T20:39:41.129Z,1.77
2023-02-04T20:42:25.192Z,1.86
2023-02-04T20:44:53.180Z,1.88
2023-02-04T20:47:23.009Z,1.84
2023-02-04T20:49:56.506Z,1.81
2023-02-04T20:53:01.848Z,1.80
2023-02-04T20:55:33.220Z,1.87
2023-02-04T20:58:15.364Z,1.79
2023-02-04T21:00:44.178Z,1.79
2023-02-04T21:03:25.474Z,1.81
2023-02-04T21:05:54.413Z,1.81
2023-02-04T21:08:37.288Z,1.84
2023-02-04T21:11:07.088Z,1.71
2023-02-04T21:13:35.470Z,1.64
2023-02-04T21:16:03.799Z,1.66
2023-02-04T21:18:34.473Z,1.61
2023-02-04T21:21:03.294Z,1.58
2023-02-04T21:23:31.558Z,1.59
2023-02-04T21:25:59.482Z,1.52
2023-02-04T21:28:28.860Z,1.56
2023-02-04T21:30:56.745Z,1.47
2023-02-04T21:33:24.708Z,1.49
2023-02-04T21:35:52.554Z,1.43
2023-02-04T21:38:20.606Z,1.41
2023-02-04T21:40:48.497Z,1.39
2023-02-04T21:43:16.412Z,1.39
2023-02-04T21:45:45.690Z,1.42
2023-02-04T21:48:14.789Z,1.37
2023-02-04T21:50:42.656Z,1.45
2023-02-04T21:53:10.923Z,1.46
2023-02-04T21:55:39.038Z,1.47
2023-02-04T21:58:07.347Z,1.46
2023-02-04T22:00:35.816Z,1.52
2023-02-04T22:03:06.156Z,1.50
2023-02-04T22:05:34.446Z,1.53
2023-02-04T22:08:02.515Z,1.55
2023-02-04T22:10:30.671Z,1.57
2023-02-04T22:12:58.630Z,1.60
2023-02-04T22:15:28.082Z,1.59
2023-02-04T22:17:56.460Z,1.58
2023-02-04T22:20:26.667Z,1.58
2023-02-04T22:22:54.790Z,1.58
2023-02-04T22:25:22.988Z,1.57
2023-02-04T22:27:50.920Z,1.56
2023-02-04T22:30:19.931Z,1.56
2023-02-04T22:32:47.902Z,1.61
2023-02-04T22:35:16.330Z,1.66
2023-02-04T22:37:45.571Z,1.60
2023-02-04T22:40:14.183Z,1.60
2023-02-04T22:42:42.196Z,1.62
2023-02-04T22:45:11.332Z,1.58
2023-02-04T22:47:39.761Z,1.60
2023-02-04T22:50:09.582Z,1.57
2023-02-04T22:52:37.690Z,1.60
2023-02-04T22:55:07.733Z,1.63
2023-02-04T22:57:35.630Z,1.62
2023-02-04T23:00:03.543Z,1.58
2023-02-04T23:02:31.519Z,1.62
2023-02-04T23:04:59.440Z,1.62
2023-02-04T23:07:27.826Z,1.61
2023-02-04T23:09:55.714Z,1.61
2023-02-04T23:12:24.995Z,1.60
2023-02-04T23:14:52.895Z,1.65
2023-02-04T23:17:20.807Z,1.66
2023-02-04T23:19:48.681Z,1.65
2023-02-04T23:22:18.006Z,1.64
2023-02-04T23:24:46.153Z,1.66
2023-02-04T23:27:14.072Z,1.67
2023-02-04T23:29:43.593Z,1.64
2023-02-04T23:32:11.461Z,1.65
2023-02-04T23:34:39.344Z,1.66
2023-02-04T23:37:07.191Z,1.67
2023-02-04T23:39:35.097Z,1.68
2023-02-04T23:42:03.129Z,1.66
2023-02-04T23:44:31.093Z,1.66
2023-02-04T23:47:00.324Z,1.68
2023-02-04T23:49:28.167Z,1.73
2023-02-04T23:51:56.010Z,1.71
2023-02-04T23:54:24.623Z,1.78
2023-02-04T23:56:53.353Z,1.75
2023-02-04T23:59:21.208Z,1.76
